Time;durP1;ratioP1;P1;durP2;ratioP2;P2;SDS_P1;SDS_P2;PMS_P1;PMS_P2;Temp;Humidity;BMP_temperature;BMP_pressure;BME280_temperature;BME280_humidity;BME280_pressure;Samples;Min_cycle;Max_cycle;Signal;HPM_P1;HPM_P2
2024/02/11 00:00:40;;;;;;;11.23;2.47;;;25.40;57.20;;;;;;5068271;28;20264;-70
2024/02/11 00:03:07;;;;;;;18.60;3.40;;;25.80;56.40;;;;;;5067651;28;20187;-69
2024/02/11 00:05:35;;;;;;;12.50;3.30;;;26.00;55.90;;;;;;5057800;28;20639;-69
2024/02/11 00:08:02;;;;;;;11.20;2.40;;;26.20;55.90;;;;;;5068460;28;20266;-70
2024/02/11 00:10:29;;;;;;;12.77;2.37;;;26.00;55.80;;;;;;5060713;28;20178;-69
2024/02/11 00:12:57;;;;;;;11.93;2.50;;;25.80;56.10;;;;;;5067674;28;20187;-69
2024/02/11 00:15:25;;;;;;;9.27;2.60;;;25.30;57.00;;;;;;5064207;28;20668;-69
2024/02/11 00:17:53;;;;;;;9.30;2.40;;;25.40;57.10;;;;;;5058899;28;20624;-71
2024/02/11 00:20:21;;;;;;;8.27;2.43;;;25.80;55.20;;;;;;5063977;28;20187;-70
2024/02/11 00:22:49;;;;;;;10.00;2.67;;;26.20;55.20;;;;;;5066629;28;20183;-69
2024/02/11 00:25:16;;;;;;;10.77;2.20;;;26.50;52.90;;;;;;5058409;28;20519;-69
2024/02/11 00:27:49;;;;;;;11.33;2.43;;;26.30;52.70;;;;;;5070398;28;20668;-69
2024/02/11 00:30:16;;;;;;;12.30;2.50;;;26.80;52.80;;;;;;5073794;28;20647;-70
2024/02/11 00:32:44;;;;;;;8.50;2.33;;;26.80;52.30;;;;;;5073675;28;20183;-70
2024/02/11 00:35:15;;;;;;;10.43;2.40;;;27.10;52.20;;;;;;5062600;28;20212;-70
2024/02/11 00:37:42;;;;;;;8.20;2.27;;;26.80;52.30;;;;;;5071818;28;20227;-69
2024/02/11 00:40:11;;;;;;;10.30;2.97;;;27.30;52.60;;;;;;5068438;28;20180;-70
2024/02/11 00:42:38;;;;;;;12.90;2.73;;;27.60;51.60;;;;;;5064092;28;20574;-68
2024/02/11 00:45:06;;;;;;;12.27;2.87;;;27.60;52.10;;;;;;5070759;28;20275;-72
2024/02/11 00:47:35;;;;;;;12.73;3.03;;;27.30;51.90;;;;;;5073308;28;20213;-70
2024/02/11 00:50:02;;;;;;;13.07;2.67;;;27.40;51.60;;;;;;5073254;28;20266;-69
2024/02/11 00:52:30;;;;;;;9.70;2.40;;;26.80;52.90;;;;;;5075618;28;20585;-71
2024/02/11 00:54:57;;;;;;;13.07;3.00;;;26.80;53.60;;;;;;5076837;28;20197;-70
2024/02/11 00:57:24;;;;;;;15.07;3.40;;;26.70;54.30;;;;;;5080069;28;20211;-71
2024/02/11 00:59:52;;;;;;;15.57;3.23;;;26.50;55.00;;;;;;5076154;28;20634;-68
2024/02/11 01:02:19;;;;;;;13.63;2.73;;;26.50;55.50;;;;;;5074659;28;20602;-71
2024/02/11 01:04:46;;;;;;;14.27;2.80;;;25.80;58.00;;;;;;5075817;28;20229;-70
2024/02/11 01:07:14;;;;;;;14.10;3.27;;;25.60;58.40;;;;;;5082057;28;20725;-71
2024/02/11 01:09:41;;;;;;;11.53;2.90;;;25.80;58.80;;;;;;5073778;28;20244;-70
2024/02/11 01:12:11;;;;;;;13.70;3.30;;;25.80;58.80;;;;;;5075208;28;20198;-70
2024/02/11 01:14:39;;;;;;;15.40;2.40;;;25.60;59.20;;;;;;5073848;28;20191;-70
2024/02/11 01:17:06;;;;;;;13.57;2.80;;;25.30;59.60;;;;;;5071348;28;20692;-69
2024/02/11 01:19:35;;;;;;;14.23;2.60;;;25.40;59.60;;;;;;5074757;28;20560;-70
2024/02/11 01:22:03;;;;;;;14.60;3.13;;;25.50;59.80;;;;;;5076310;28;20180;-71
2024/02/11 01:24:30;;;;;;;13.83;2.60;;;25.80;59.00;;;;;;5074260;28;20194;-69
2024/02/11 01:26:58;;;;;;;9.83;2.87;;;25.70;59.00;;;;;;5072843;28;20179;-71
2024/02/11 01:29:25;;;;;;;11.70;3.23;;;25.80;59.40;;;;;;5073749;28;20531;-71
2024/02/11 01:31:53;;;;;;;16.43;3.23;;;25.80;58.80;;;;;;5074823;28;20179;-73
2024/02/11 01:34:20;;;;;;;13.20;2.80;;;25.80;58.50;;;;;;5072329;28;20175;-70
2024/02/11 01:36:47;;;;;;;15.40;3.13;;;25.60;58.90;;;;;;5076305;28;20692;-70
2024/02/11 01:39:15;;;;;;;12.77;3.23;;;25.80;59.20;;;;;;5071670;28;20266;-72
2024/02/11 01:41:42;;;;;;;16.43;2.70;;;25.70;59.30;;;;;;5076555;28;20541;-75
2024/02/11 01:44:12;;;;;;;17.33;3.03;;;25.40;59.90;;;;;;5074025;28;20182;-72
2024/02/11 01:46:39;;;;;;;15.93;3.03;;;25.20;59.90;;;;;;5072870;28;20228;-73
2024/02/11 01:49:10;;;;;;;12.97;3.03;;;25.50;59.30;;;;;;5073639;28;20179;-72
2024/02/11 01:51:44;;;;;;;12.60;3.00;;;25.50;59.50;;;;;;5073474;28;20512;-70
2024/02/11 01:54:18;;;;;;;10.77;2.83;;;25.40;59.10;;;;;;5073962;28;20574;-72
2024/02/11 01:56:50;;;;;;;11.60;2.37;;;25.30;59.20;;;;;;5070814;28;20179;-73
2024/02/11 01:59:19;;;;;;;12.00;2.90;;;25.40;59.20;;;;;;5073791;28;20222;-70
2024/02/11 02:01:50;;;;;;;16.30;3.60;;;25.30;60.30;;;;;;5074593;28;20203;-73
2024/02/11 02:04:17;;;;;;;13.50;2.93;;;25.50;60.30;;;;;;5074311;28;20228;-70
2024/02/11 02:06:44;;;;;;;19.10;3.30;;;25.50;60.00;;;;;;5074456;28;20195;-76
2024/02/11 02:09:13;;;;;;;11.10;2.90;;;25.30;59.50;;;;;;5077415;28;20175;-71
2024/02/11 02:11:41;;;;;;;11.73;2.77;;;25.20;60.10;;;;;;5073099;28;20195;-70
2024/02/11 02:14:08;;;;;;;14.40;3.73;;;25.50;59.50;;;;;;5073099;28;20242;-71
2024/02/11 02:16:35;;;;;;;13.70;2.73;;;25.60;59.30;;;;;;5071287;28;20210;-74
2024/02/11 02:19:03;;;;;;;18.47;3.80;;;25.80;58.50;;;;;;5063426;28;20230;-71
2024/02/11 02:21:31;;;;;;;12.13;2.80;;;25.80;58.80;;;;;;5073011;28;20198;-72
2024/02/11 02:23:58;;;;;;;18.50;3.07;;;25.90;58.70;;;;;;5070372;28;20197;-74
2024/02/11 02:26:25;;;;;;;12.90;2.70;;;26.00;58.00;;;;;;5069431;28;20187;-72
2024/02/11 02:28:53;;;;;;;13.90;3.30;;;25.60;58.90;;;;;;5073238;28;20515;-73
2024/02/11 02:31:21;;;;;;;10.30;2.80;;;25.80;59.00;;;;;;5072695;28;20188;-72
2024/02/11 02:33:50;;;;;;;14.17;2.60;;;25.80;58.00;;;;;;5069691;28;20198;-71
2024/02/11 02:36:17;;;;;;;9.27;2.47;;;26.00;58.80;;;;;;5070081;28;20310;-70
2024/02/11 02:38:45;;;;;;;12.63;3.27;;;26.20;57.80;;;;;;5061029;28;20219;-70
2024/02/11 02:41:12;;;;;;;14.07;3.33;;;26.10;57.50;;;;;;5067634;28;20173;-70
2024/02/11 02:43:40;;;;;;;11.07;3.40;;;26.10;57.00;;;;;;5073115;28;20191;-70
2024/02/11 02:46:09;;;;;;;15.37;3.27;;;26.20;58.00;;;;;;5065830;28;20237;-70
2024/02/11 02:48:36;;;;;;;14.80;3.07;;;26.10;56.60;;;;;;5061429;28;20199;-69
2024/02/11 02:51:04;;;;;;;14.27;2.93;;;25.80;56.50;;;;;;5068973;28;20686;-70
2024/02/11 02:53:31;;;;;;;10.57;2.77;;;25.50;58.50;;;;;;5066563;28;20184;-70
2024/02/11 02:56:04;;;;;;;11.93;3.17;;;25.50;59.30;;;;;;5061223;28;20199;-70
2024/02/11 02:58:31;;;;;;;13.93;3.10;;;25.50;57.90;;;;;;5065233;28;20724;-71
2024/02/11 03:01:00;;;;;;;14.87;3.13;;;25.60;58.70;;;;;;5069906;28;20542;-68
2024/02/11 03:03:27;;;;;;;9.40;3.20;;;25.80;58.30;;;;;;5064210;28;20187;-70
2024/02/11 03:05:55;;;;;;;11.87;2.90;;;25.80;58.60;;;;;;5069576;28;20191;-70
2024/02/11 03:08:22;;;;;;;11.47;2.90;;;26.00;58.40;;;;;;5065099;28;20183;-72
2024/02/11 03:10:49;;;;;;;17.20;4.17;;;25.90;57.60;;;;;;5064592;28;20188;-70
2024/02/11 03:13:16;;;;;;;13.00;2.87;;;26.20;56.30;;;;;;5070155;28;20186;-70
2024/02/11 03:15:44;;;;;;;15.10;3.20;;;26.50;56.40;;;;;;5064479;28;20236;-70
2024/02/11 03:18:11;;;;;;;16.03;3.10;;;26.60;56.60;;;;;;5062728;28;20273;-70
2024/02/11 03:20:38;;;;;;;11.30;2.80;;;26.80;55.60;;;;;;5071237;28;20183;-69
2024/02/11 03:23:06;;;;;;;15.03;2.60;;;26.90;55.60;;;;;;5066854;28;20188;-70
2024/02/11 03:25:33;;;;;;;10.47;2.97;;;27.00;55.30;;;;;;5062925;28;20190;-69
2024/02/11 03:28:00;;;;;;;11.87;2.93;;;27.10;54.10;;;;;;5070425;28;20187;-70
2024/02/11 03:30:28;;;;;;;14.03;2.77;;;27.20;54.80;;;;;;5065638;28;20186;-70
2024/02/11 03:32:56;;;;;;;12.53;3.20;;;27.20;54.40;;;;;;5070875;28;20187;-70
2024/02/11 03:35:23;;;;;;;14.30;2.97;;;27.50;54.70;;;;;;5063613;28;20223;-70
2024/02/11 03:37:51;;;;;;;17.40;3.20;;;27.50;53.90;;;;;;5062502;28;20219;-75
2024/02/11 03:40:19;;;;;;;12.90;3.17;;;27.10;55.20;;;;;;5064520;28;20179;-73
2024/02/11 03:42:50;;;;;;;13.53;2.80;;;26.70;56.10;;;;;;5054031;28;20663;-71
2024/02/11 03:45:18;;;;;;;12.30;3.10;;;26.50;56.40;;;;;;5062902;28;20310;-71
2024/02/11 03:47:49;;;;;;;17.00;3.50;;;26.30;56.10;;;;;;5055516;28;20195;-71
2024/02/11 03:50:19;;;;;;;10.40;2.40;;;26.60;55.60;;;;;;5061658;28;20249;-71
2024/02/11 03:52:46;;;;;;;10.07;2.60;;;26.80;54.70;;;;;;5072187;28;20186;-72
2024/02/11 03:55:13;;;;;;;12.47;3.07;;;26.40;55.10;;;;;;5065944;28;20275;-69
2024/02/11 03:57:41;;;;;;;11.83;2.50;;;26.70;55.10;;;;;;5066852;28;20210;-71
2024/02/11 04:00:24;;;;;;;12.87;2.80;;;26.30;55.70;;;;;;5057601;28;20195;-72
2024/02/11 04:02:54;;;;;;;13.97;2.50;;;26.30;55.80;;;;;;5066014;28;20529;-74
2024/02/11 04:05:26;;;;;;;13.73;3.00;;;25.90;56.10;;;;;;5058007;28;20211;-72
2024/02/11 04:07:55;;;;;;;14.70;2.87;;;26.20;56.00;;;;;;5061864;28;20280;-71
2024/02/11 04:10:23;;;;;;;8.90;2.50;;;26.20;56.50;;;;;;5054548;28;20188;-71
2024/02/11 04:12:52;;;;;;;10.17;2.70;;;26.20;56.10;;;;;;5054833;28;20664;-72
2024/02/11 04:15:22;;;;;;;17.40;3.30;;;26.20;55.60;;;;;;5054607;28;20209;-71
2024/02/11 04:17:56;;;;;;;10.13;2.80;;;26.30;55.90;;;;;;5057094;28;20211;-70
2024/02/11 04:20:31;;;;;;;14.90;3.07;;;26.00;56.50;;;;;;5055016;28;20176;-72
2024/02/11 04:23:00;;;;;;;13.80;2.80;;;26.40;56.00;;;;;;5054980;28;20211;-72
2024/02/11 04:25:36;;;;;;;9.00;2.40;;;26.40;55.90;;;;;;5055099;28;20382;-69
2024/02/11 04:28:08;;;;;;;13.80;2.77;;;26.50;55.50;;;;;;5056223;28;20562;-70
2024/02/11 04:30:42;;;;;;;12.83;3.13;;;26.60;54.90;;;;;;5055339;28;20630;-72
2024/02/11 04:33:14;;;;;;;14.73;3.40;;;26.80;55.30;;;;;;5056350;28;20182;-72
2024/02/11 04:35:41;;;;;;;18.17;2.97;;;26.70;54.50;;;;;;5067702;28;20273;-69
2024/02/11 04:38:12;;;;;;;12.67;3.03;;;26.80;54.30;;;;;;5056113;28;20682;-71
2024/02/11 04:40:40;;;;;;;13.70;3.10;;;26.90;54.20;;;;;;5054476;28;20211;-73
2024/02/11 04:43:07;;;;;;;10.90;2.90;;;26.70;55.40;;;;;;5054578;28;20517;-70
2024/02/11 04:45:37;;;;;;;17.37;3.30;;;27.00;54.40;;;;;;5054875;28;20225;-70
2024/02/11 04:48:05;;;;;;;12.30;2.80;;;27.00;54.00;;;;;;5054565;28;20225;-69
2024/02/11 04:50:34;;;;;;;14.77;2.80;;;27.20;53.70;;;;;;5054907;28;20219;-69
2024/02/11 04:53:07;;;;;;;12.70;3.20;;;27.40;53.20;;;;;;5054701;28;20237;-70
2024/02/11 04:55:43;;;;;;;11.57;2.77;;;27.60;52.50;;;;;;5056968;28;20200;-71
2024/02/11 04:58:14;;;;;;;9.90;2.70;;;27.70;51.70;;;;;;5054491;28;20564;-73
2024/02/11 05:00:44;;;;;;;16.50;3.10;;;28.00;51.50;;;;;;5058420;28;20191;-70
2024/02/11 05:03:11;;;;;;;12.13;2.90;;;27.30;53.30;;;;;;5056623;28;20589;-72
2024/02/11 05:05:41;;;;;;;12.10;3.00;;;27.50;52.80;;;;;;5056565;28;20175;-71
2024/02/11 05:08:10;;;;;;;14.03;3.10;;;27.30;53.20;;;;;;5056157;28;20188;-71
2024/02/11 05:10:41;;;;;;;10.37;2.73;;;27.30;52.90;;;;;;5054096;28;20175;-69
2024/02/11 05:13:11;;;;;;;12.07;2.90;;;27.50;52.40;;;;;;5055052;28;20200;-70
2024/02/11 05:15:42;;;;;;;7.73;2.27;;;27.70;51.70;;;;;;5058384;28;20176;-72
2024/02/11 05:18:12;;;;;;;10.97;2.93;;;27.80;50.50;;;;;;5069976;28;20218;-71
2024/02/11 05:20:41;;;;;;;13.63;2.73;;;27.50;51.60;;;;;;5058147;28;20176;-71
2024/02/11 05:23:11;;;;;;;13.00;2.70;;;27.40;52.30;;;;;;5057883;28;20188;-70
2024/02/11 05:25:40;;;;;;;11.33;3.00;;;27.90;50.90;;;;;;5057551;28;20275;-71
2024/02/11 05:28:13;;;;;;;14.70;2.63;;;28.10;50.50;;;;;;5065783;28;20187;-70
2024/02/11 05:30:45;;;;;;;8.30;2.43;;;27.30;52.30;;;;;;5070408;28;20539;-69
2024/02/11 05:33:16;;;;;;;10.93;2.20;;;27.00;53.10;;;;;;5057733;28;20542;-72
2024/02/11 05:35:44;;;;;;;15.47;3.47;;;27.10;52.80;;;;;;5057707;28;20629;-70
2024/02/11 05:38:13;;;;;;;17.37;2.83;;;27.20;53.60;;;;;;5057319;28;20208;-70
2024/02/11 05:40:42;;;;;;;11.17;2.70;;;27.00;53.10;;;;;;5057411;28;20180;-71
2024/02/11 05:43:15;;;;;;;11.57;2.73;;;26.70;53.20;;;;;;5057778;28;20222;-71
2024/02/11 05:45:44;;;;;;;16.67;3.07;;;26.40;54.60;;;;;;5067561;28;20565;-71
2024/02/11 05:48:12;;;;;;;15.10;3.40;;;26.30;54.70;;;;;;5061918;28;20195;-69
2024/02/11 05:50:45;;;;;;;14.40;2.90;;;26.20;55.70;;;;;;5057229;28;20180;-70
2024/02/11 05:53:13;;;;;;;17.27;3.47;;;26.50;54.60;;;;;;5059645;28;20188;-71
2024/02/11 05:55:40;;;;;;;13.33;2.67;;;26.80;53.60;;;;;;5056201;28;20512;-70
2024/02/11 05:58:08;;;;;;;14.07;2.90;;;26.40;53.90;;;;;;5056450;28;20303;-71
2024/02/11 06:00:42;;;;;;;16.30;2.60;;;26.20;55.20;;;;;;5067202;28;20210;-73
2024/02/11 06:03:10;;;;;;;15.07;3.23;;;25.80;56.10;;;;;;5061179;28;20225;-71
2024/02/11 06:05:38;;;;;;;16.67;3.40;;;25.80;56.30;;;;;;5055907;28;20192;-71
2024/02/11 06:08:06;;;;;;;15.43;3.03;;;26.10;55.50;;;;;;5055598;28;20374;-71
2024/02/11 06:10:33;;;;;;;12.40;2.70;;;25.80;56.20;;;;;;5060064;28;20195;-69
2024/02/11 06:13:03;;;;;;;14.07;3.40;;;25.90;56.40;;;;;;5061370;28;20228;-71
2024/02/11 06:15:33;;;;;;;14.00;3.07;;;25.80;55.90;;;;;;5057146;28;20226;-73
2024/02/11 06:18:01;;;;;;;17.57;2.87;;;25.60;56.50;;;;;;5056730;28;20223;-70
2024/02/11 06:20:29;;;;;;;13.57;2.60;;;25.30;57.00;;;;;;5057007;28;20315;-70
2024/02/11 06:22:57;;;;;;;11.57;2.53;;;25.40;57.30;;;;;;5057079;28;20200;-72
2024/02/11 06:25:24;;;;;;;10.53;3.10;;;25.40;57.20;;;;;;5055695;28;20266;-71
2024/02/11 06:27:53;;;;;;;13.27;2.57;;;25.60;56.40;;;;;;5058304;28;20669;-72
2024/02/11 06:30:21;;;;;;;11.50;2.80;;;25.60;56.00;;;;;;5056527;28;20184;-71
2024/02/11 06:32:50;;;;;;;12.87;2.90;;;25.30;56.50;;;;;;5056401;28;20690;-70
2024/02/11 06:35:19;;;;;;;13.30;2.70;;;25.20;57.20;;;;;;5055817;28;20220;-69
2024/02/11 06:37:48;;;;;;;15.57;2.90;;;25.30;56.90;;;;;;5062809;28;20290;-71
2024/02/11 06:40:17;;;;;;;16.17;2.70;;;25.50;56.10;;;;;;5056035;28;20659;-72
2024/02/11 06:42:50;;;;;;;16.00;2.80;;;25.30;56.80;;;;;;5056414;28;20672;-73
2024/02/11 06:45:18;;;;;;;12.60;2.60;;;25.60;55.90;;;;;;5058693;28;20538;-72
2024/02/11 06:47:48;;;;;;;13.43;2.70;;;25.80;54.90;;;;;;5055523;28;20527;-74
2024/02/11 06:50:18;;;;;;;14.60;2.90;;;25.90;54.80;;;;;;5070468;28;20184;-71
2024/02/11 06:52:50;;;;;;;11.73;2.70;;;25.80;55.60;;;;;;5056338;28;20226;-73
2024/02/11 06:55:19;;;;;;;14.47;3.10;;;25.80;55.40;;;;;;5055442;28;20184;-74
2024/02/11 06:57:46;;;;;;;11.87;2.87;;;25.30;56.50;;;;;;5055294;28;20215;-74
2024/02/11 07:00:18;;;;;;;22.73;2.93;;;25.30;56.50;;;;;;5059457;28;21014;-73
2024/02/11 07:02:52;;;;;;;14.33;3.17;;;25.30;57.10;;;;;;5068272;28;20254;-75
2024/02/11 07:05:20;;;;;;;11.60;2.53;;;25.10;57.50;;;;;;5069008;28;20273;-73
2024/02/11 07:07:48;;;;;;;20.23;2.83;;;25.20;57.40;;;;;;5064640;28;20179;-74
2024/02/11 07:10:16;;;;;;;13.73;3.07;;;25.20;56.70;;;;;;5064554;28;21601;-70
2024/02/11 07:12:44;;;;;;;14.57;2.87;;;25.50;56.40;;;;;;5069227;28;20197;-73
2024/02/11 07:15:12;;;;;;;13.20;2.67;;;26.60;53.60;;;;;;5068960;28;20179;-75
2024/02/11 07:17:41;;;;;;;12.23;2.60;;;27.10;51.90;;;;;;5063489;28;20207;-72
2024/02/11 07:20:11;;;;;;;8.67;2.80;;;27.00;52.00;;;;;;5069863;28;20186;-71
2024/02/11 07:22:40;;;;;;;11.30;2.87;;;27.40;50.70;;;;;;5064969;28;20253;-71
2024/02/11 07:25:09;;;;;;;12.07;2.90;;;27.20;51.40;;;;;;5067467;28;20221;-71
2024/02/11 07:27:36;;;;;;;16.67;3.40;;;27.40;51.30;;;;;;5070219;28;20527;-71
2024/02/11 07:30:04;;;;;;;10.53;2.80;;;28.10;50.50;;;;;;5063435;28;20194;-69
2024/02/11 07:32:31;;;;;;;8.23;2.50;;;28.80;48.70;;;;;;5059176;28;20183;-74
2024/02/11 07:34:59;;;;;;;9.20;2.40;;;28.30;49.30;;;;;;5060083;28;20180;-70
2024/02/11 07:37:26;;;;;;;9.83;2.63;;;27.40;50.90;;;;;;5068084;28;20215;-70
2024/02/11 07:39:54;;;;;;;12.53;3.27;;;27.60;51.30;;;;;;5068791;28;20190;-69
2024/02/11 07:42:22;;;;;;;11.37;3.13;;;28.10;50.10;;;;;;5073884;28;20548;-70
2024/02/11 07:44:49;;;;;;;11.87;3.23;;;27.90;50.70;;;;;;5054864;28;20171;-70
2024/02/11 07:47:17;;;;;;;8.00;2.33;;;28.30;49.50;;;;;;5065213;28;20229;-70
2024/02/11 07:49:45;;;;;;;16.07;3.10;;;27.40;50.60;;;;;;5062191;28;20571;-68
2024/02/11 07:52:12;;;;;;;15.63;2.77;;;27.30;51.60;;;;;;5062237;28;20179;-69
2024/02/11 07:54:40;;;;;;;11.77;2.90;;;27.30;51.70;;;;;;5069104;28;20201;-69
2024/02/11 07:57:07;;;;;;;13.57;2.70;;;26.50;53.00;;;;;;5058416;28;20183;-70
2024/02/11 07:59:37;;;;;;;10.73;2.40;;;25.90;54.60;;;;;;5060312;28;20183;-69
2024/02/11 08:02:04;;;;;;;9.40;2.50;;;25.30;56.20;;;;;;5068379;28;20287;-73
2024/02/11 08:04:31;;;;;;;16.03;2.87;;;24.90;57.40;;;;;;5063548;28;20175;-71
2024/02/11 08:06:59;;;;;;;10.87;2.87;;;24.60;58.80;;;;;;5059965;28;20886;-70
2024/02/11 08:09:26;;;;;;;12.43;2.43;;;24.30;59.10;;;;;;5070029;28;20520;-69
2024/02/11 08:11:54;;;;;;;11.93;2.80;;;24.10;59.80;;;;;;5064207;28;20180;-70
2024/02/11 08:14:21;;;;;;;17.27;3.43;;;23.90;60.50;;;;;;5071297;28;20187;-70
2024/02/11 08:16:49;;;;;;;12.93;3.43;;;23.80;60.80;;;;;;5074968;28;20190;-70
2024/02/11 08:19:16;;;;;;;17.10;3.03;;;23.80;61.20;;;;;;5069209;28;20219;-71
2024/02/11 08:21:44;;;;;;;11.30;2.47;;;23.70;61.20;;;;;;5071303;28;20700;-70
2024/02/11 08:24:12;;;;;;;9.03;2.27;;;23.70;61.40;;;;;;5071869;28;20186;-70
2024/02/11 08:26:39;;;;;;;20.10;3.63;;;23.60;61.90;;;;;;5072866;28;20223;-72
2024/02/11 08:29:08;;;;;;;21.67;4.03;;;23.50;62.60;;;;;;5067666;28;20176;-69
2024/02/11 08:31:35;;;;;;;9.90;2.10;;;23.30;62.90;;;;;;5071864;28;20266;-70
2024/02/11 08:34:02;;;;;;;10.97;2.80;;;23.30;62.90;;;;;;5071326;28;20186;-70
2024/02/11 08:36:30;;;;;;;13.80;2.50;;;23.30;62.90;;;;;;5071372;28;20234;-69
2024/02/11 08:38:59;;;;;;;19.77;3.07;;;23.20;63.10;;;;;;5071547;28;20581;-69
2024/02/11 08:41:26;;;;;;;12.53;2.70;;;23.10;63.50;;;;;;5068284;28;20270;-70
2024/02/11 08:43:53;;;;;;;11.77;2.43;;;23.00;63.70;;;;;;5070451;28;20190;-69
2024/02/11 08:46:20;;;;;;;15.60;3.43;;;23.00;63.70;;;;;;5071809;28;20195;-68
2024/02/11 08:48:49;;;;;;;15.30;3.03;;;23.00;63.80;;;;;;5074846;28;20647;-68
2024/02/11 08:51:20;;;;;;;12.60;2.60;;;23.00;64.00;;;;;;5074296;28;20187;-70
2024/02/11 08:53:48;;;;;;;11.43;2.93;;;22.90;64.20;;;;;;5073980;28;20184;-69
2024/02/11 08:56:15;;;;;;;17.90;3.97;;;22.90;64.40;;;;;;5076032;28;20664;-68
2024/02/11 08:58:43;;;;;;;16.63;3.13;;;22.80;64.60;;;;;;5075064;28;20222;-69
2024/02/11 09:01:10;;;;;;;13.60;2.73;;;22.80;64.80;;;;;;5079661;28;20214;-70
2024/02/11 09:03:38;;;;;;;15.10;3.00;;;22.80;64.80;;;;;;5081905;28;20191;-69
2024/02/11 09:06:05;;;;;;;17.20;3.37;;;22.80;64.90;;;;;;5076588;28;20187;-68
2024/02/11 09:08:33;;;;;;;15.67;3.03;;;22.80;65.20;;;;;;5074916;28;20182;-68
2024/02/11 09:11:06;;;;;;;13.00;2.67;;;22.80;65.30;;;;;;5075254;28;20184;-69
2024/02/11 09:13:37;;;;;;;12.73;2.70;;;22.80;65.70;;;;;;5072254;28;20184;-68
2024/02/11 09:16:04;;;;;;;10.53;2.40;;;22.70;65.90;;;;;;5075578;28;20328;-69
2024/02/11 09:18:32;;;;;;;11.47;2.40;;;22.70;66.10;;;;;;5075280;28;20298;-69
2024/02/11 09:20:59;;;;;;;9.17;2.70;;;22.60;66.30;;;;;;5075307;28;20652;-69
2024/02/11 09:23:27;;;;;;;13.70;2.90;;;22.60;66.60;;;;;;5076963;28;20195;-69
2024/02/11 09:25:55;;;;;;;16.53;3.37;;;22.60;66.80;;;;;;5074194;28;20584;-68
2024/02/11 09:28:23;;;;;;;16.37;2.97;;;22.60;66.90;;;;;;5081784;28;20194;-67
2024/02/11 09:30:50;;;;;;;13.77;3.10;;;22.60;67.30;;;;;;5076773;28;20191;-68
2024/02/11 09:33:17;;;;;;;13.80;3.03;;;22.60;67.50;;;;;;5074606;28;20187;-68
2024/02/11 09:35:46;;;;;;;15.40;2.90;;;22.60;67.80;;;;;;5073779;28;20232;-69
2024/02/11 09:38:15;;;;;;;11.43;3.53;;;22.60;68.10;;;;;;5074492;28;20310;-69
2024/02/11 09:40:44;;;;;;;15.77;3.27;;;22.50;68.20;;;;;;5074403;28;20622;-68
2024/02/11 09:43:15;;;;;;;15.33;3.10;;;22.50;68.30;;;;;;5074992;28;20198;-69
2024/02/11 09:45:44;;;;;;;14.30;3.47;;;22.50;68.60;;;;;;5074157;28;20551;-69
2024/02/11 09:48:13;;;;;;;16.57;3.10;;;22.40;68.90;;;;;;5072325;28;20297;-69
2024/02/11 09:50:44;;;;;;;20.47;3.63;;;22.40;69.10;;;;;;5077039;28;20645;-68
2024/02/11 09:53:16;;;;;;;16.90;3.80;;;22.40;69.40;;;;;;5075416;28;20641;-68
2024/02/11 09:55:45;;;;;;;12.63;3.50;;;22.40;69.60;;;;;;5073735;28;20187;-69
2024/02/11 09:58:12;;;;;;;12.90;2.80;;;22.40;69.70;;;;;;5072577;28;20202;-68
2024/02/11 10:00:40;;;;;;;15.50;3.27;;;22.40;69.80;;;;;;5073568;28;20175;-69
2024/02/11 10:03:09;;;;;;;16.20;3.27;;;22.40;69.90;;;;;;5074571;28;20195;-71
2024/02/11 10:05:39;;;;;;;14.87;3.90;;;22.50;70.10;;;;;;5075155;28;20176;-69
2024/02/11 10:08:16;;;;;;;14.23;3.33;;;22.50;70.20;;;;;;5072697;28;20557;-69
2024/02/11 10:10:43;;;;;;;11.47;2.90;;;22.50;70.30;;;;;;5074048;28;20182;-69
2024/02/11 10:13:21;;;;;;;15.43;4.23;;;22.60;70.20;;;;;;5071170;28;20201;-69
2024/02/11 10:15:49;;;;;;;18.33;3.17;;;22.70;70.40;;;;;;5072329;28;20519;-70
2024/02/11 10:18:19;;;;;;;13.67;3.97;;;22.70;70.40;;;;;;5074085;28;20276;-69
2024/02/11 10:20:47;;;;;;;17.90;3.47;;;22.60;70.60;;;;;;5073292;28;20179;-68
2024/02/11 10:23:16;;;;;;;18.40;3.93;;;22.60;70.70;;;;;;5074060;28;20187;-68
2024/02/11 10:25:47;;;;;;;19.73;3.30;;;22.60;71.00;;;;;;5073280;28;20649;-69
2024/02/11 10:28:15;;;;;;;18.00;3.30;;;22.60;71.10;;;;;;5071106;28;20188;-70
2024/02/11 10:30:42;;;;;;;23.70;4.43;;;22.70;71.40;;;;;;5074073;28;20186;-68
2024/02/11 10:33:13;;;;;;;19.90;4.20;;;22.70;71.50;;;;;;5074137;28;20240;-69
2024/02/11 10:35:41;;;;;;;28.43;4.27;;;22.70;71.80;;;;;;5072876;28;20219;-69
2024/02/11 10:38:09;;;;;;;20.03;4.10;;;22.70;71.90;;;;;;5078403;28;20209;-69
2024/02/11 10:40:42;;;;;;;19.93;3.47;;;22.70;72.20;;;;;;5073825;28;20176;-71
2024/02/11 10:43:11;;;;;;;22.77;3.77;;;22.80;72.30;;;;;;5062771;28;20186;-69
2024/02/11 10:45:39;;;;;;;17.77;3.77;;;22.80;72.30;;;;;;5069706;28;20190;-69
2024/02/11 10:48:06;;;;;;;17.70;3.73;;;22.80;72.50;;;;;;5074604;28;20210;-71
2024/02/11 10:50:34;;;;;;;21.03;3.97;;;22.80;72.70;;;;;;5072798;28;20198;-71
2024/02/11 10:53:03;;;;;;;15.17;3.27;;;22.80;72.80;;;;;;5073069;28;20175;-69
2024/02/11 10:55:45;;;;;;;23.37;3.77;;;22.80;73.00;;;;;;5072604;28;20188;-70
2024/02/11 10:58:18;;;;;;;16.10;3.43;;;22.80;73.10;;;;;;5074256;28;20277;-70
2024/02/11 11:00:51;;;;;;;23.23;3.57;;;22.80;73.40;;;;;;5072983;28;20214;-69
2024/02/11 11:03:26;;;;;;;17.87;3.80;;;22.80;73.50;;;;;;5074519;28;20179;-70
2024/02/11 11:05:56;;;;;;;16.03;3.53;;;22.80;73.60;;;;;;5071973;28;20186;-69
2024/02/11 11:08:25;;;;;;;19.43;3.70;;;22.80;73.60;;;;;;5072809;28;20218;-69
2024/02/11 11:10:52;;;;;;;14.73;3.30;;;22.80;73.80;;;;;;5072384;28;20191;-70
2024/02/11 11:13:31;;;;;;;20.53;3.40;;;22.80;73.80;;;;;;5070416;28;20538;-73
2024/02/11 11:16:02;;;;;;;20.53;4.13;;;22.80;73.90;;;;;;5069426;28;20183;-69
2024/02/11 11:18:38;;;;;;;18.80;3.60;;;22.80;73.90;;;;;;5072448;28;20215;-69
2024/02/11 11:21:07;;;;;;;14.83;3.53;;;22.80;74.00;;;;;;5070313;28;20171;-69
2024/02/11 11:23:37;;;;;;;14.13;3.30;;;22.80;73.90;;;;;;5072630;28;20670;-70
2024/02/11 11:26:12;;;;;;;15.13;2.90;;;22.80;74.00;;;;;;5072416;28;20253;-72
2024/02/11 11:28:42;;;;;;;16.20;3.77;;;22.80;74.10;;;;;;5065248;28;20175;-69
2024/02/11 11:31:09;;;;;;;24.37;3.97;;;22.80;74.20;;;;;;5074137;28;20364;-69
2024/02/11 11:33:37;;;;;;;14.67;3.27;;;22.80;74.20;;;;;;5075778;28;20179;-69
2024/02/11 11:36:05;;;;;;;15.33;3.30;;;22.80;74.20;;;;;;5071637;28;20230;-70
2024/02/11 11:38:33;;;;;;;18.30;3.93;;;22.80;74.30;;;;;;5072054;28;20210;-69
2024/02/11 11:41:01;;;;;;;17.23;3.37;;;22.80;74.50;;;;;;5071328;28;20590;-69
2024/02/11 11:43:30;;;;;;;20.23;3.90;;;22.80;74.50;;;;;;5070424;28;20190;-69
2024/02/11 11:46:04;;;;;;;18.50;3.60;;;22.80;74.60;;;;;;5072014;28;20176;-69
2024/02/11 11:48:33;;;;;;;20.07;3.87;;;22.80;74.70;;;;;;5068283;28;20261;-69
2024/02/11 11:51:02;;;;;;;18.47;3.50;;;22.80;74.80;;;;;;5068541;28;20233;-71
2024/02/11 11:53:30;;;;;;;17.10;3.37;;;22.80;74.90;;;;;;5072077;28;20182;-71
2024/02/11 11:56:01;;;;;;;18.40;3.43;;;22.80;75.00;;;;;;5071957;28;20583;-70
2024/02/11 11:58:32;;;;;;;18.30;3.80;;;22.80;75.00;;;;;;5066758;28;20723;-70
2024/02/11 12:01:04;;;;;;;18.10;3.00;;;22.80;75.10;;;;;;5068777;28;20191;-69
2024/02/11 12:03:34;;;;;;;17.30;3.40;;;22.80;75.20;;;;;;5068830;28;20190;-72
2024/02/11 12:06:02;;;;;;;19.70;3.57;;;22.80;75.40;;;;;;5068788;28;20528;-70
2024/02/11 12:08:30;;;;;;;24.73;3.97;;;22.80;75.50;;;;;;5066378;28;20175;-70
2024/02/11 12:11:04;;;;;;;23.17;3.73;;;22.80;75.70;;;;;;5068170;28;20203;-70
2024/02/11 12:13:38;;;;;;;20.87;3.40;;;22.80;75.80;;;;;;5058508;28;20216;-71
2024/02/11 12:16:20;;;;;;;17.70;3.00;;;22.80;76.00;;;;;;5060345;28;20205;-71
2024/02/11 12:18:47;;;;;;;14.97;3.10;;;22.80;76.10;;;;;;5067032;28;20218;-72
2024/02/11 12:21:15;;;;;;;18.07;3.33;;;22.80;76.30;;;;;;5063118;28;20187;-72
2024/02/11 12:23:42;;;;;;;19.00;3.83;;;22.80;76.50;;;;;;5071345;28;21754;-71
2024/02/11 12:26:10;;;;;;;18.40;3.70;;;22.80;76.60;;;;;;5065394;28;20190;-72
2024/02/11 12:28:39;;;;;;;22.20;4.23;;;22.80;76.80;;;;;;5071996;28;20554;-72
2024/02/11 12:31:09;;;;;;;24.50;3.73;;;22.80;77.00;;;;;;5073544;28;20190;-71
2024/02/11 12:33:50;;;;;;;15.67;3.73;;;22.80;77.10;;;;;;5071989;28;20191;-71
2024/02/11 12:36:27;;;;;;;15.63;3.27;;;22.80;77.20;;;;;;5070375;28;20281;-71
2024/02/11 12:39:00;;;;;;;20.37;3.50;;;22.80;77.30;;;;;;5066855;28;20561;-71
2024/02/11 12:41:29;;;;;;;17.30;3.60;;;22.80;77.40;;;;;;5062711;28;20195;-70
2024/02/11 12:43:57;;;;;;;16.33;3.40;;;22.80;77.50;;;;;;5069274;28;20218;-70
2024/02/11 12:46:24;;;;;;;20.77;3.40;;;22.80;77.60;;;;;;5068066;28;20197;-70